createdAt,value
2023-03-23T15:59:59.148Z,99284.00
2023-03-23T16:02:34.320Z,99276.00
2023-03-23T16:05:09.435Z,99275.00
2023-03-23T16:07:43.885Z,99252.00
2023-03-23T16:10:21.035Z,99272.00
2023-03-23T16:12:55.042Z,99261.00
2023-03-23T16:15:30.193Z,99258.00
2023-03-23T16:18:04.189Z,99258.00
2023-03-23T16:20:38.416Z,99264.00
2023-03-23T16:23:12.496Z,99273.00
2023-03-23T16:25:46.391Z,99270.00
2023-03-23T16:28:20.818Z,99277.00
2023-03-23T16:30:56.515Z,99284.00
2023-03-23T16:33:30.727Z,99288.00
2023-03-23T16:36:06.318Z,99285.00
2023-03-23T16:38:49.845Z,99274.00
2023-03-23T16:41:24.577Z,99272.00
2023-03-23T16:43:59.107Z,99270.00
2023-03-23T16:46:34.484Z,99272.00
2023-03-23T16:49:08.372Z,99260.00
2023-03-23T16:51:43.058Z,99264.00
2023-03-23T16:54:16.678Z,99270.00
2023-03-23T16:56:50.337Z,99278.00
2023-03-23T16:59:24.234Z,99282.00
2023-03-23T17:02:03.671Z,99286.00
2023-03-23T17:04:37.705Z,99297.00
2023-03-23T17:07:12.386Z,99298.00
2023-03-23T17:09:46.538Z,99306.00
2023-03-23T17:12:21.001Z,99300.00
2023-03-23T17:14:54.483Z,99310.00
2023-03-23T17:17:30.074Z,99315.00
2023-03-23T17:20:03.562Z,99304.00
2023-03-23T17:22:37.852Z,99322.00
2023-03-23T17:25:12.536Z,99311.00
2023-03-23T17:27:46.094Z,99317.00
2023-03-23T17:30:20.737Z,99323.00
2023-03-23T17:32:55.854Z,99320.00
2023-03-23T17:35:30.268Z,99306.00
2023-03-23T17:38:05.005Z,99318.00
2023-03-23T17:40:39.137Z,99324.00
2023-03-23T17:43:13.060Z,99328.00
2023-03-23T17:45:47.709Z,99326.00
2023-03-23T17:48:23.391Z,99316.00
2023-03-23T17:50:59.402Z,99322.00
2023-03-23T17:53:35.746Z,99322.00
2023-03-23T17:56:10.324Z,99323.00
2023-03-23T17:58:44.201Z,99311.00
2023-03-23T18:01:18.473Z,99311.00
2023-03-23T18:03:53.913Z,99312.00
2023-03-23T18:06:30.356Z,99289.00
2023-03-23T18:09:05.932Z,99308.00
2023-03-23T18:11:39.742Z,99305.00
2023-03-23T18:14:13.775Z,99291.00
2023-03-23T18:16:48.548Z,99293.00
2023-03-23T18:19:24.247Z,99297.00
2023-03-23T18:21:58.128Z,99290.00
2023-03-23T18:24:31.909Z,99288.00
2023-03-23T18:27:05.925Z,99279.00
2023-03-23T18:29:39.734Z,99282.00
2023-03-23T18:32:13.600Z,99285.00
2023-03-23T18:34:48.761Z,99279.00
2023-03-23T18:37:24.122Z,99272.00
2023-03-23T18:39:58.243Z,99267.00
2023-03-23T18:42:32.160Z,99260.00
2023-03-23T18:45:06.650Z,99260.00
2023-03-23T18:47:41.225Z,99261.00
2023-03-23T18:50:17.243Z,99262.00
2023-03-23T18:52:50.969Z,99257.00
2023-03-23T18:55:25.018Z,99252.00
2023-03-23T18:58:00.514Z,99273.00
2023-03-23T19:00:34.573Z,99273.00
2023-03-23T19:03:09.775Z,99272.00
2023-03-23T19:05:45.733Z,99258.00
2023-03-23T19:08:19.558Z,99257.00
2023-03-23T19:11:01.332Z,99252.00
2023-03-23T19:13:36.903Z,99230.00
2023-03-23T19:16:11.495Z,99239.00
2023-03-23T19:18:45.381Z,99243.00
2023-03-23T19:21:24.915Z,99243.00
2023-03-23T19:24:01.984Z,99233.00
2023-03-23T19:26:46.697Z,99245.00
2023-03-23T19:31:58.957Z,99247.00
2023-03-23T19:34:34.864Z,99237.00
2023-03-23T19:37:11.298Z,99228.00
2023-03-23T19:39:44.831Z,99225.00
2023-03-23T19:42:20.347Z,99231.00
2023-03-23T19:44:53.740Z,99226.00
2023-03-23T19:47:27.686Z,99212.00
2023-03-23T19:50:01.834Z,99205.00
2023-03-23T19:52:37.050Z,99208.00
2023-03-23T19:55:11.126Z,99203.00
2023-03-23T19:57:45.244Z,99201.00
2023-03-23T20:00:24.672Z,99176.00
2023-03-23T20:02:58.938Z,99201.00
2023-03-23T20:05:35.128Z,99177.00
2023-03-23T20:08:11.209Z,99190.00
2023-03-23T20:10:44.918Z,99190.00
2023-03-23T20:13:18.902Z,99182.00
2023-03-23T20:15:56.773Z,99183.00
2023-03-23T20:18:34.159Z,99176.00
2023-03-23T20:21:10.717Z,99180.00
2023-03-23T20:23:46.331Z,99184.00
2023-03-23T20:26:25.649Z,99183.00
2023-03-23T20:28:59.353Z,99160.00
2023-03-23T20:31:36.821Z,99161.00
2023-03-23T20:34:13.303Z,99164.00
2023-03-23T20:36:50.525Z,99163.00
2023-03-23T20:39:29.351Z,99159.00
2023-03-23T20:42:06.247Z,99156.00
2023-03-23T20:44:41.676Z,99156.00
2023-03-23T20:47:15.538Z,99145.00
2023-03-23T20:49:53.265Z,99143.00
2023-03-23T20:52:27.820Z,99139.00
2023-03-23T20:55:03.103Z,99135.00
2023-03-23T20:57:38.308Z,99136.00
2023-03-23T21:00:19.547Z,99144.00
2023-03-23T21:02:54.229Z,99125.00
2023-03-23T21:05:30.875Z,99130.00
2023-03-23T21:08:08.839Z,99124.00
2023-03-23T21:10:44.128Z,99120.00
2023-03-23T21:13:19.634Z,99126.00
2023-03-23T21:15:53.176Z,99119.00
2023-03-23T21:18:27.448Z,99122.00
2023-03-23T21:21:01.578Z,99117.00
2023-03-23T21:23:36.012Z,99110.00
2023-03-23T21:26:12.473Z,99115.00
2023-03-23T21:28:50.614Z,99125.00
2023-03-23T21:31:27.610Z,99114.00
2023-03-23T21:34:02.680Z,99114.00
2023-03-23T21:36:37.293Z,99114.00
2023-03-23T21:39:12.159Z,99098.00
2023-03-23T21:41:50.043Z,99095.00
2023-03-23T21:44:24.482Z,99108.00
2023-03-23T21:46:58.244Z,99097.00
2023-03-23T21:49:31.912Z,99104.00
2023-03-23T21:52:06.821Z,99097.00
2023-03-23T21:54:41.434Z,99098.00
2023-03-23T21:57:16.984Z,99097.00
2023-03-23T21:59:54.151Z,99098.00
2023-03-23T22:02:31.787Z,99097.00
2023-03-23T22:05:07.234Z,99097.00
2023-03-23T22:07:41.933Z,99089.00
2023-03-23T22:10:15.937Z,99097.00
2023-03-23T22:12:54.386Z,99101.00
2023-03-23T22:15:29.893Z,99096.00
2023-03-23T22:18:04.298Z,99084.00
2023-03-23T22:20:40.546Z,99088.00
2023-03-23T22:23:15.694Z,99093.00
2023-03-23T22:25:50.164Z,99081.00
2023-03-23T22:28:27.581Z,99080.00
2023-03-23T22:31:08.954Z,99068.00
2023-03-23T22:33:42.926Z,99071.00
2023-03-23T22:36:17.823Z,99071.00
2023-03-23T22:38:52.730Z,99078.00
2023-03-23T22:41:29.369Z,99066.00
2023-03-23T22:44:05.066Z,99058.00
2023-03-23T22:46:39.148Z,99070.00
2023-03-23T22:49:13.772Z,99054.00
2023-03-23T22:51:48.557Z,99058.00
2023-03-23T22:54:22.520Z,99058.00
2023-03-23T22:56:57.379Z,99055.00
2023-03-23T22:59:33.277Z,99050.00
2023-03-23T23:02:09.590Z,99055.00
2023-03-23T23:04:47.381Z,99042.00
2023-03-23T23:13:20.068Z,99037.00
2023-03-23T23:15:58.822Z,99024.00
2023-03-23T23:18:33.591Z,99014.00
2023-03-23T23:21:10.099Z,99015.00
2023-03-23T23:23:46.539Z,99011.00
2023-03-23T23:26:22.141Z,99008.00
2023-03-23T23:28:56.179Z,99006.00
2023-03-23T23:31:34.706Z,98992.00
2023-03-23T23:34:08.560Z,98997.00
2023-03-23T23:36:42.946Z,98996.00
2023-03-23T23:39:17.196Z,98985.00
2023-03-23T23:41:51.327Z,98987.00
2023-03-23T23:44:25.163Z,98969.00
2023-03-23T23:47:00.719Z,98981.00
2023-03-23T23:49:35.462Z,98980.00
2023-03-23T23:52:10.601Z,98981.00
2023-03-23T23:54:47.661Z,98973.00
2023-03-23T23:57:21.732Z,98962.00
2023-03-23T23:59:56.068Z,98972.00
